sensor_id;sensor_type;location;lat;lon;timestamp;P1;durP1;ratioP1;P2;durP2;ratioP2
15449;SDS011;7826;49.784;9.934;2022-12-07T00:01:07;6.73;;;3.77;;
15449;SDS011;7826;49.784;9.934;2022-12-07T00:03:38;6.90;;;3.97;;
15449;SDS011;7826;49.784;9.934;2022-12-07T00:06:06;6.43;;;4.00;;
15449;SDS011;7826;49.784;9.934;2022-12-07T00:08:34;7.53;;;4.43;;
15449;SDS011;7826;49.784;9.934;2022-12-07T00:11:06;7.03;;;4.07;;
15449;SDS011;7826;49.784;9.934;2022-12-07T00:13:34;5.70;;;3.77;;
15449;SDS011;7826;49.784;9.934;2022-12-07T00:16:02;7.50;;;4.00;;
15449;SDS011;7826;49.784;9.934;2022-12-07T00:18:31;5.37;;;3.70;;
15449;SDS011;7826;49.784;9.934;2022-12-07T00:21:04;6.07;;;4.33;;
15449;SDS011;7826;49.784;9.934;2022-12-07T00:23:32;10.17;;;4.00;;
15449;SDS011;7826;49.784;9.934;2022-12-07T00:26:06;8.40;;;4.67;;
15449;SDS011;7826;49.784;9.934;2022-12-07T00:28:33;6.40;;;4.03;;
15449;SDS011;7826;49.784;9.934;2022-12-07T00:31:00;7.60;;;4.43;;
15449;SDS011;7826;49.784;9.934;2022-12-07T00:33:32;7.87;;;4.63;;
15449;SDS011;7826;49.784;9.934;2022-12-07T00:35:59;6.80;;;4.23;;
15449;SDS011;7826;49.784;9.934;2022-12-07T00:38:30;8.97;;;4.67;;
15449;SDS011;7826;49.784;9.934;2022-12-07T00:40:59;6.53;;;4.07;;
15449;SDS011;7826;49.784;9.934;2022-12-07T00:43:27;7.57;;;4.57;;
15449;SDS011;7826;49.784;9.934;2022-12-07T00:45:54;8.43;;;4.47;;
15449;SDS011;7826;49.784;9.934;2022-12-07T00:48:20;6.07;;;4.50;;
15449;SDS011;7826;49.784;9.934;2022-12-07T00:50:47;7.80;;;4.20;;
15449;SDS011;7826;49.784;9.934;2022-12-07T00:53:16;6.10;;;4.03;;
15449;SDS011;7826;49.784;9.934;2022-12-07T00:55:42;5.00;;;3.60;;
15449;SDS011;7826;49.784;9.934;2022-12-07T00:58:09;5.63;;;3.47;;
15449;SDS011;7826;49.784;9.934;2022-12-07T01:00:37;9.90;;;4.50;;
15449;SDS011;7826;49.784;9.934;2022-12-07T01:03:05;9.60;;;4.43;;
15449;SDS011;7826;49.784;9.934;2022-12-07T01:05:32;7.47;;;4.47;;
15449;SDS011;7826;49.784;9.934;2022-12-07T01:07:59;6.33;;;3.90;;
15449;SDS011;7826;49.784;9.934;2022-12-07T01:10:26;4.87;;;3.20;;
15449;SDS011;7826;49.784;9.934;2022-12-07T01:12:52;6.57;;;4.03;;
15449;SDS011;7826;49.784;9.934;2022-12-07T01:15:19;7.70;;;4.70;;
15449;SDS011;7826;49.784;9.934;2022-12-07T01:17:45;8.57;;;3.83;;
15449;SDS011;7826;49.784;9.934;2022-12-07T01:20:12;8.80;;;4.50;;
15449;SDS011;7826;49.784;9.934;2022-12-07T01:22:42;8.03;;;3.83;;
15449;SDS011;7826;49.784;9.934;2022-12-07T01:25:10;6.83;;;3.70;;
15449;SDS011;7826;49.784;9.934;2022-12-07T01:27:36;6.90;;;4.13;;
15449;SDS011;7826;49.784;9.934;2022-12-07T01:30:04;4.90;;;3.57;;
15449;SDS011;7826;49.784;9.934;2022-12-07T01:32:32;8.33;;;4.07;;
15449;SDS011;7826;49.784;9.934;2022-12-07T01:34:59;9.47;;;4.47;;
15449;SDS011;7826;49.784;9.934;2022-12-07T01:37:26;7.63;;;3.83;;
15449;SDS011;7826;49.784;9.934;2022-12-07T01:39:52;8.60;;;4.00;;
15449;SDS011;7826;49.784;9.934;2022-12-07T01:42:19;6.20;;;4.00;;
15449;SDS011;7826;49.784;9.934;2022-12-07T01:47:48;6.93;;;4.00;;
15449;SDS011;7826;49.784;9.934;2022-12-07T01:50:18;6.90;;;4.10;;
15449;SDS011;7826;49.784;9.934;2022-12-07T01:52:46;6.97;;;4.07;;
15449;SDS011;7826;49.784;9.934;2022-12-07T01:55:16;8.53;;;4.13;;
15449;SDS011;7826;49.784;9.934;2022-12-07T01:57:45;6.63;;;4.33;;
15449;SDS011;7826;49.784;9.934;2022-12-07T02:00:16;6.33;;;3.90;;
15449;SDS011;7826;49.784;9.934;2022-12-07T02:02:44;6.57;;;3.57;;
15449;SDS011;7826;49.784;9.934;2022-12-07T02:05:19;7.63;;;4.20;;
15449;SDS011;7826;49.784;9.934;2022-12-07T02:07:45;8.43;;;4.33;;
15449;SDS011;7826;49.784;9.934;2022-12-07T02:10:20;7.80;;;4.43;;
15449;SDS011;7826;49.784;9.934;2022-12-07T02:12:56;6.20;;;3.73;;
15449;SDS011;7826;49.784;9.934;2022-12-07T02:15:24;7.27;;;4.50;;
15449;SDS011;7826;49.784;9.934;2022-12-07T02:18:09;6.30;;;4.13;;
15449;SDS011;7826;49.784;9.934;2022-12-07T02:20:54;5.43;;;3.83;;
15449;SDS011;7826;49.784;9.934;2022-12-07T02:23:29;11.40;;;4.53;;
15449;SDS011;7826;49.784;9.934;2022-12-07T02:28:50;7.33;;;3.67;;
15449;SDS011;7826;49.784;9.934;2022-12-07T02:31:31;8.50;;;4.50;;
15449;SDS011;7826;49.784;9.934;2022-12-07T02:34:42;10.10;;;4.87;;
15449;SDS011;7826;49.784;9.934;2022-12-07T02:36:52;7.77;;;4.37;;
15449;SDS011;7826;49.784;9.934;2022-12-07T02:39:28;7.20;;;4.70;;
15449;SDS011;7826;49.784;9.934;2022-12-07T02:42:12;10.53;;;4.97;;
15449;SDS011;7826;49.784;9.934;2022-12-07T02:44:42;9.23;;;4.53;;
15449;SDS011;7826;49.784;9.934;2022-12-07T02:47:11;7.67;;;4.57;;
15449;SDS011;7826;49.784;9.934;2022-12-07T02:49:41;6.33;;;3.33;;
15449;SDS011;7826;49.784;9.934;2022-12-07T02:52:08;6.83;;;4.27;;
15449;SDS011;7826;49.784;9.934;2022-12-07T02:54:34;7.90;;;4.50;;
15449;SDS011;7826;49.784;9.934;2022-12-07T03:13:21;8.90;;;4.93;;
15449;SDS011;7826;49.784;9.934;2022-12-07T03:16:16;6.27;;;4.40;;
15449;SDS011;7826;49.784;9.934;2022-12-07T03:18:50;10.93;;;4.50;;
15449;SDS011;7826;49.784;9.934;2022-12-07T03:21:40;7.60;;;4.03;;
15449;SDS011;7826;49.784;9.934;2022-12-07T03:24:12;8.23;;;4.40;;
15449;SDS011;7826;49.784;9.934;2022-12-07T03:27:07;6.13;;;3.87;;
15449;SDS011;7826;49.784;9.934;2022-12-07T03:29:47;9.70;;;4.27;;
15449;SDS011;7826;49.784;9.934;2022-12-07T03:32:26;8.60;;;4.10;;
15449;SDS011;7826;49.784;9.934;2022-12-07T03:35:14;8.80;;;4.60;;
15449;SDS011;7826;49.784;9.934;2022-12-07T03:37:54;6.73;;;4.13;;
15449;SDS011;7826;49.784;9.934;2022-12-07T03:40:35;7.70;;;4.23;;
15449;SDS011;7826;49.784;9.934;2022-12-07T03:43:33;6.33;;;4.20;;
15449;SDS011;7826;49.784;9.934;2022-12-07T03:51:24;7.67;;;3.80;;
15449;SDS011;7826;49.784;9.934;2022-12-07T03:54:07;5.50;;;3.70;;
15449;SDS011;7826;49.784;9.934;2022-12-07T03:56:42;6.37;;;3.53;;
15449;SDS011;7826;49.784;9.934;2022-12-07T03:59:10;9.40;;;4.43;;
15449;SDS011;7826;49.784;9.934;2022-12-07T04:01:38;14.17;;;4.53;;
15449;SDS011;7826;49.784;9.934;2022-12-07T04:04:23;10.23;;;4.73;;
15449;SDS011;7826;49.784;9.934;2022-12-07T04:07:08;8.57;;;4.30;;
15449;SDS011;7826;49.784;9.934;2022-12-07T04:09:34;10.03;;;4.77;;
15449;SDS011;7826;49.784;9.934;2022-12-07T04:12:01;7.40;;;4.20;;
15449;SDS011;7826;49.784;9.934;2022-12-07T04:14:27;8.77;;;4.30;;
15449;SDS011;7826;49.784;9.934;2022-12-07T04:16:54;6.47;;;3.63;;
15449;SDS011;7826;49.784;9.934;2022-12-07T04:19:23;8.67;;;4.13;;
15449;SDS011;7826;49.784;9.934;2022-12-07T04:21:51;6.80;;;4.20;;
15449;SDS011;7826;49.784;9.934;2022-12-07T04:24:17;6.30;;;3.33;;
15449;SDS011;7826;49.784;9.934;2022-12-07T04:26:44;6.93;;;3.93;;
15449;SDS011;7826;49.784;9.934;2022-12-07T04:29:12;6.80;;;3.63;;
15449;SDS011;7826;49.784;9.934;2022-12-07T04:31:39;5.90;;;3.47;;
15449;SDS011;7826;49.784;9.934;2022-12-07T04:34:05;7.67;;;4.10;;
15449;SDS011;7826;49.784;9.934;2022-12-07T04:36:32;7.70;;;4.17;;
15449;SDS011;7826;49.784;9.934;2022-12-07T04:38:59;6.83;;;4.17;;
15449;SDS011;7826;49.784;9.934;2022-12-07T04:41:25;7.13;;;4.27;;
15449;SDS011;7826;49.784;9.934;2022-12-07T04:43:55;15.67;;;7.90;;
15449;SDS011;7826;49.784;9.934;2022-12-07T04:46:23;8.93;;;4.97;;
15449;SDS011;7826;49.784;9.934;2022-12-07T04:48:51;6.70;;;4.53;;
15449;SDS011;7826;49.784;9.934;2022-12-07T04:51:19;7.37;;;4.47;;
15449;SDS011;7826;49.784;9.934;2022-12-07T04:53:47;7.60;;;3.87;;
15449;SDS011;7826;49.784;9.934;2022-12-07T04:56:14;6.93;;;4.57;;
15449;SDS011;7826;49.784;9.934;2022-12-07T04:58:42;7.13;;;4.50;;
15449;SDS011;7826;49.784;9.934;2022-12-07T05:01:09;9.83;;;4.10;;
15449;SDS011;7826;49.784;9.934;2022-12-07T05:03:36;7.63;;;4.20;;
15449;SDS011;7826;49.784;9.934;2022-12-07T05:06:03;6.70;;;4.00;;
15449;SDS011;7826;49.784;9.934;2022-12-07T05:08:30;9.43;;;3.90;;
15449;SDS011;7826;49.784;9.934;2022-12-07T05:10:57;10.67;;;4.57;;
15449;SDS011;7826;49.784;9.934;2022-12-07T05:13:24;12.53;;;5.13;;
15449;SDS011;7826;49.784;9.934;2022-12-07T05:15:50;6.17;;;3.83;;
15449;SDS011;7826;49.784;9.934;2022-12-07T05:18:17;9.67;;;3.93;;
15449;SDS011;7826;49.784;9.934;2022-12-07T05:20:43;7.60;;;4.17;;
15449;SDS011;7826;49.784;9.934;2022-12-07T05:23:11;6.60;;;4.07;;
15449;SDS011;7826;49.784;9.934;2022-12-07T05:25:37;7.17;;;4.40;;
15449;SDS011;7826;49.784;9.934;2022-12-07T05:28:04;5.83;;;3.37;;
15449;SDS011;7826;49.784;9.934;2022-12-07T05:30:31;6.50;;;3.87;;
15449;SDS011;7826;49.784;9.934;2022-12-07T05:32:58;8.70;;;4.50;;
15449;SDS011;7826;49.784;9.934;2022-12-07T05:35:25;8.47;;;4.43;;
15449;SDS011;7826;49.784;9.934;2022-12-07T05:37:51;6.67;;;4.07;;
15449;SDS011;7826;49.784;9.934;2022-12-07T05:40:17;7.10;;;3.93;;
15449;SDS011;7826;49.784;9.934;2022-12-07T05:42:44;6.03;;;3.70;;
15449;SDS011;7826;49.784;9.934;2022-12-07T05:45:11;10.83;;;3.80;;
15449;SDS011;7826;49.784;9.934;2022-12-07T05:47:37;7.90;;;3.93;;
15449;SDS011;7826;49.784;9.934;2022-12-07T05:50:04;9.87;;;4.57;;
15449;SDS011;7826;49.784;9.934;2022-12-07T05:52:32;6.23;;;3.70;;
15449;SDS011;7826;49.784;9.934;2022-12-07T05:54:58;6.00;;;4.07;;
15449;SDS011;7826;49.784;9.934;2022-12-07T05:57:24;8.67;;;4.53;;
15449;SDS011;7826;49.784;9.934;2022-12-07T05:59:50;7.27;;;4.27;;
15449;SDS011;7826;49.784;9.934;2022-12-07T06:02:17;8.67;;;4.43;;
15449;SDS011;7826;49.784;9.934;2022-12-07T06:04:44;8.03;;;4.30;;
15449;SDS011;7826;49.784;9.934;2022-12-07T06:07:14;7.47;;;4.40;;
15449;SDS011;7826;49.784;9.934;2022-12-07T06:09:41;10.43;;;4.20;;
15449;SDS011;7826;49.784;9.934;2022-12-07T06:12:09;8.10;;;4.47;;
15449;SDS011;7826;49.784;9.934;2022-12-07T06:14:55;6.93;;;3.90;;
15449;SDS011;7826;49.784;9.934;2022-12-07T06:17:21;6.73;;;3.73;;
15449;SDS011;7826;49.784;9.934;2022-12-07T06:19:47;7.60;;;4.80;;
15449;SDS011;7826;49.784;9.934;2022-12-07T06:22:13;7.93;;;4.47;;
15449;SDS011;7826;49.784;9.934;2022-12-07T06:24:41;8.53;;;4.30;;
15449;SDS011;7826;49.784;9.934;2022-12-07T06:27:08;8.37;;;3.97;;
15449;SDS011;7826;49.784;9.934;2022-12-07T06:29:35;8.83;;;4.53;;
15449;SDS011;7826;49.784;9.934;2022-12-07T06:32:02;9.13;;;4.60;;
15449;SDS011;7826;49.784;9.934;2022-12-07T06:34:29;8.30;;;4.63;;
15449;SDS011;7826;49.784;9.934;2022-12-07T06:36:56;8.70;;;4.47;;
15449;SDS011;7826;49.784;9.934;2022-12-07T06:39:23;7.97;;;4.13;;
15449;SDS011;7826;49.784;9.934;2022-12-07T06:41:51;8.50;;;4.60;;
15449;SDS011;7826;49.784;9.934;2022-12-07T06:44:18;7.07;;;4.37;;
15449;SDS011;7826;49.784;9.934;2022-12-07T06:46:44;8.40;;;4.90;;
15449;SDS011;7826;49.784;9.934;2022-12-07T06:49:10;8.13;;;4.40;;
15449;SDS011;7826;49.784;9.934;2022-12-07T06:51:37;10.10;;;4.77;;
15449;SDS011;7826;49.784;9.934;2022-12-07T06:54:07;9.13;;;4.20;;
15449;SDS011;7826;49.784;9.934;2022-12-07T06:56:37;7.20;;;4.57;;
15449;SDS011;7826;49.784;9.934;2022-12-07T06:59:03;6.53;;;4.23;;
15449;SDS011;7826;49.784;9.934;2022-12-07T07:01:32;7.07;;;4.10;;
15449;SDS011;7826;49.784;9.934;2022-12-07T07:03:59;8.60;;;4.13;;
15449;SDS011;7826;49.784;9.934;2022-12-07T07:06:26;7.60;;;4.17;;
15449;SDS011;7826;49.784;9.934;2022-12-07T07:08:52;7.90;;;4.10;;
15449;SDS011;7826;49.784;9.934;2022-12-07T07:11:19;8.00;;;4.37;;
15449;SDS011;7826;49.784;9.934;2022-12-07T07:13:45;6.73;;;4.17;;
15449;SDS011;7826;49.784;9.934;2022-12-07T07:16:11;7.67;;;4.03;;
15449;SDS011;7826;49.784;9.934;2022-12-07T07:18:38;6.30;;;3.53;;
15449;SDS011;7826;49.784;9.934;2022-12-07T07:21:04;8.03;;;3.90;;
15449;SDS011;7826;49.784;9.934;2022-12-07T07:23:30;6.27;;;3.93;;
15449;SDS011;7826;49.784;9.934;2022-12-07T07:25:56;6.67;;;3.70;;
15449;SDS011;7826;49.784;9.934;2022-12-07T07:28:23;6.13;;;4.10;;
15449;SDS011;7826;49.784;9.934;2022-12-07T07:30:49;7.73;;;4.30;;
15449;SDS011;7826;49.784;9.934;2022-12-07T07:33:16;7.90;;;4.60;;
15449;SDS011;7826;49.784;9.934;2022-12-07T07:35:42;6.50;;;3.53;;
15449;SDS011;7826;49.784;9.934;2022-12-07T07:38:08;7.00;;;3.90;;
15449;SDS011;7826;49.784;9.934;2022-12-07T07:40:35;8.77;;;4.80;;
15449;SDS011;7826;49.784;9.934;2022-12-07T07:43:01;8.10;;;4.10;;
15449;SDS011;7826;49.784;9.934;2022-12-07T07:45:28;9.27;;;4.50;;
15449;SDS011;7826;49.784;9.934;2022-12-07T07:47:54;7.90;;;4.57;;
15449;SDS011;7826;49.784;9.934;2022-12-07T07:50:21;6.33;;;3.47;;
15449;SDS011;7826;49.784;9.934;2022-12-07T07:52:48;8.33;;;4.73;;
15449;SDS011;7826;49.784;9.934;2022-12-07T07:55:15;7.87;;;3.87;;
15449;SDS011;7826;49.784;9.934;2022-12-07T07:57:41;7.80;;;3.67;;
15449;SDS011;7826;49.784;9.934;2022-12-07T08:00:09;8.13;;;4.17;;
15449;SDS011;7826;49.784;9.934;2022-12-07T08:02:37;7.00;;;4.20;;
15449;SDS011;7826;49.784;9.934;2022-12-07T08:05:04;7.37;;;3.83;;
15449;SDS011;7826;49.784;9.934;2022-12-07T08:07:31;7.23;;;4.10;;
15449;SDS011;7826;49.784;9.934;2022-12-07T08:09:57;8.20;;;4.33;;
15449;SDS011;7826;49.784;9.934;2022-12-07T08:12:23;7.47;;;4.50;;
15449;SDS011;7826;49.784;9.934;2022-12-07T08:14:49;8.67;;;3.80;;
15449;SDS011;7826;49.784;9.934;2022-12-07T08:17:16;7.70;;;3.70;;
15449;SDS011;7826;49.784;9.934;2022-12-07T08:19:42;6.77;;;4.10;;
15449;SDS011;7826;49.784;9.934;2022-12-07T08:22:08;8.10;;;4.03;;
15449;SDS011;7826;49.784;9.934;2022-12-07T08:24:35;6.20;;;3.77;;
15449;SDS011;7826;49.784;9.934;2022-12-07T08:27:02;6.73;;;3.97;;
15449;SDS011;7826;49.784;9.934;2022-12-07T08:29:29;9.67;;;4.60;;
15449;SDS011;7826;49.784;9.934;2022-12-07T08:31:55;6.73;;;3.47;;
15449;SDS011;7826;49.784;9.934;2022-12-07T08:34:22;9.23;;;3.90;;
15449;SDS011;7826;49.784;9.934;2022-12-07T08:36:48;9.17;;;4.20;;
15449;SDS011;7826;49.784;9.934;2022-12-07T08:39:14;9.50;;;3.87;;
15449;SDS011;7826;49.784;9.934;2022-12-07T08:41:41;7.67;;;4.17;;
15449;SDS011;7826;49.784;9.934;2022-12-07T08:44:07;6.80;;;4.23;;
15449;SDS011;7826;49.784;9.934;2022-12-07T08:49:13;6.37;;;3.97;;
15449;SDS011;7826;49.784;9.934;2022-12-07T08:51:51;6.00;;;3.90;;
15449;SDS011;7826;49.784;9.934;2022-12-07T08:54:18;7.17;;;3.80;;
15449;SDS011;7826;49.784;9.934;2022-12-07T08:56:45;9.20;;;4.50;;
15449;SDS011;7826;49.784;9.934;2022-12-07T08:59:13;6.77;;;3.90;;
15449;SDS011;7826;49.784;9.934;2022-12-07T09:01:42;5.17;;;3.63;;
15449;SDS011;7826;49.784;9.934;2022-12-07T09:04:08;7.23;;;4.33;;
15449;SDS011;7826;49.784;9.934;2022-12-07T09:06:35;7.47;;;4.53;;
15449;SDS011;7826;49.784;9.934;2022-12-07T09:09:01;6.43;;;4.07;;
15449;SDS011;7826;49.784;9.934;2022-12-07T09:11:29;6.27;;;3.90;;
15449;SDS011;7826;49.784;9.934;2022-12-07T09:13:55;8.30;;;3.97;;
15449;SDS011;7826;49.784;9.934;2022-12-07T09:16:22;9.17;;;4.93;;
15449;SDS011;7826;49.784;9.934;2022-12-07T09:18:48;5.10;;;3.50;;
15449;SDS011;7826;49.784;9.934;2022-12-07T09:21:15;9.13;;;3.97;;
15449;SDS011;7826;49.784;9.934;2022-12-07T09:23:41;7.70;;;4.00;;
15449;SDS011;7826;49.784;9.934;2022-12-07T09:26:08;6.57;;;3.80;;
15449;SDS011;7826;49.784;9.934;2022-12-07T09:28:35;6.27;;;4.07;;
15449;SDS011;7826;49.784;9.934;2022-12-07T09:31:02;4.57;;;3.37;;
15449;SDS011;7826;49.784;9.934;2022-12-07T09:33:29;6.13;;;3.67;;
15449;SDS011;7826;49.784;9.934;2022-12-07T09:35:55;7.60;;;4.30;;
15449;SDS011;7826;49.784;9.934;2022-12-07T09:38:22;7.63;;;4.43;;
15449;SDS011;7826;49.784;9.934;2022-12-07T09:40:53;8.63;;;4.00;;
15449;SDS011;7826;49.784;9.934;2022-12-07T09:43:21;6.83;;;4.00;;
15449;SDS011;7826;49.784;9.934;2022-12-07T09:45:51;6.43;;;3.47;;
15449;SDS011;7826;49.784;9.934;2022-12-07T09:48:38;6.70;;;4.00;;
15449;SDS011;7826;49.784;9.934;2022-12-07T09:51:14;7.53;;;3.53;;
15449;SDS011;7826;49.784;9.934;2022-12-07T09:53:47;6.07;;;3.63;;
15449;SDS011;7826;49.784;9.934;2022-12-07T09:56:14;7.30;;;4.43;;
15449;SDS011;7826;49.784;9.934;2022-12-07T09:58:43;6.13;;;3.70;;
15449;SDS011;7826;49.784;9.934;2022-12-07T10:01:20;5.83;;;3.80;;
15449;SDS011;7826;49.784;9.934;2022-12-07T10:03:54;7.00;;;3.70;;
15449;SDS011;7826;49.784;9.934;2022-12-07T10:06:26;6.97;;;4.67;;
15449;SDS011;7826;49.784;9.934;2022-12-07T10:08:52;6.83;;;3.80;;
15449;SDS011;7826;49.784;9.934;2022-12-07T10:11:18;5.93;;;3.33;;
15449;SDS011;7826;49.784;9.934;2022-12-07T10:13:46;6.57;;;4.00;;
15449;SDS011;7826;49.784;9.934;2022-12-07T10:18:49;6.43;;;3.60;;
15449;SDS011;7826;49.784;9.934;2022-12-07T10:24:31;5.23;;;3.47;;
15449;SDS011;7826;49.784;9.934;2022-12-07T10:29:16;5.20;;;3.47;;
15449;SDS011;7826;49.784;9.934;2022-12-07T10:34:31;5.53;;;3.43;;
15449;SDS011;7826;49.784;9.934;2022-12-07T10:37:33;5.63;;;3.67;;
15449;SDS011;7826;49.784;9.934;2022-12-07T10:39:55;6.87;;;4.23;;
15449;SDS011;7826;49.784;9.934;2022-12-07T10:42:26;6.67;;;3.40;;
15449;SDS011;7826;49.784;9.934;2022-12-07T10:47:45;5.67;;;3.27;;
15449;SDS011;7826;49.784;9.934;2022-12-07T10:55:49;3.77;;;2.90;;
15449;SDS011;7826;49.784;9.934;2022-12-07T11:03:55;6.10;;;4.00;;
15449;SDS011;7826;49.784;9.934;2022-12-07T11:12:13;5.30;;;3.87;;
15449;SDS011;7826;49.784;9.934;2022-12-07T11:15:19;5.00;;;3.47;;
15449;SDS011;7826;49.784;9.934;2022-12-07T11:41:44;5.27;;;3.80;;
15449;SDS011;7826;49.784;9.934;2022-12-07T11:52:32;3.70;;;3.07;;
15449;SDS011;7826;49.784;9.934;2022-12-07T11:55:01;4.17;;;2.63;;
15449;SDS011;7826;49.784;9.934;2022-12-07T11:57:33;4.23;;;3.30;;
15449;SDS011;7826;49.784;9.934;2022-12-07T12:00:12;5.20;;;3.07;;
15449;SDS011;7826;49.784;9.934;2022-12-07T12:02:53;4.20;;;3.13;;
15449;SDS011;7826;49.784;9.934;2022-12-07T12:05:34;4.47;;;2.63;;
15449;SDS011;7826;49.784;9.934;2022-12-07T12:08:06;3.37;;;2.70;;
15449;SDS011;7826;49.784;9.934;2022-12-07T12:16:51;3.57;;;2.73;;
15449;SDS011;7826;49.784;9.934;2022-12-07T12:19:38;4.17;;;2.57;;
15449;SDS011;7826;49.784;9.934;2022-12-07T12:22:17;5.40;;;3.23;;
15449;SDS011;7826;49.784;9.934;2022-12-07T12:24:48;4.90;;;3.40;;
15449;SDS011;7826;49.784;9.934;2022-12-07T12:27:25;4.07;;;2.77;;
15449;SDS011;7826;49.784;9.934;2022-12-07T12:29:55;3.20;;;2.43;;
15449;SDS011;7826;49.784;9.934;2022-12-07T12:37:52;5.30;;;2.40;;
15449;SDS011;7826;49.784;9.934;2022-12-07T12:42:53;3.13;;;2.57;;
15449;SDS011;7826;49.784;9.934;2022-12-07T12:50:24;3.47;;;2.70;;
15449;SDS011;7826;49.784;9.934;2022-12-07T13:00:45;4.20;;;2.13;;
15449;SDS011;7826;49.784;9.934;2022-12-07T13:03:29;4.57;;;2.60;;
15449;SDS011;7826;49.784;9.934;2022-12-07T13:08:50;4.77;;;2.67;;
15449;SDS011;7826;49.784;9.934;2022-12-07T13:11:20;3.00;;;2.40;;
15449;SDS011;7826;49.784;9.934;2022-12-07T13:14:34;5.97;;;2.80;;
15449;SDS011;7826;49.784;9.934;2022-12-07T13:17:00;6.33;;;3.10;;
15449;SDS011;7826;49.784;9.934;2022-12-07T13:25:18;5.03;;;2.67;;
15449;SDS011;7826;49.784;9.934;2022-12-07T13:28:01;3.20;;;2.17;;
15449;SDS011;7826;49.784;9.934;2022-12-07T13:33:29;3.80;;;2.30;;
15449;SDS011;7826;49.784;9.934;2022-12-07T13:35:55;5.53;;;2.97;;
15449;SDS011;7826;49.784;9.934;2022-12-07T13:41:02;4.23;;;3.13;;
15449;SDS011;7826;49.784;9.934;2022-12-07T13:43:30;5.10;;;2.73;;
15449;SDS011;7826;49.784;9.934;2022-12-07T13:45:57;4.33;;;2.90;;
15449;SDS011;7826;49.784;9.934;2022-12-07T13:48:37;5.03;;;2.90;;
15449;SDS011;7826;49.784;9.934;2022-12-07T13:51:25;3.73;;;2.93;;
15449;SDS011;7826;49.784;9.934;2022-12-07T13:53:54;4.87;;;3.00;;
15449;SDS011;7826;49.784;9.934;2022-12-07T13:56:41;3.73;;;3.03;;
15449;SDS011;7826;49.784;9.934;2022-12-07T13:59:18;4.20;;;2.83;;
15449;SDS011;7826;49.784;9.934;2022-12-07T14:01:48;5.40;;;2.53;;
15449;SDS011;7826;49.784;9.934;2022-12-07T14:04:37;4.30;;;2.67;;
15449;SDS011;7826;49.784;9.934;2022-12-07T14:07:23;6.63;;;2.60;;
15449;SDS011;7826;49.784;9.934;2022-12-07T14:09:58;6.20;;;3.13;;
15449;SDS011;7826;49.784;9.934;2022-12-07T14:12:27;5.73;;;3.20;;
15449;SDS011;7826;49.784;9.934;2022-12-07T14:14:55;5.70;;;3.20;;
15449;SDS011;7826;49.784;9.934;2022-12-07T14:17:23;5.53;;;3.50;;
15449;SDS011;7826;49.784;9.934;2022-12-07T14:19:52;4.80;;;2.53;;
15449;SDS011;7826;49.784;9.934;2022-12-07T14:22:33;3.63;;;2.57;;
15449;SDS011;7826;49.784;9.934;2022-12-07T14:25:23;5.47;;;3.10;;
15449;SDS011;7826;49.784;9.934;2022-12-07T14:27:53;6.23;;;3.33;;
15449;SDS011;7826;49.784;9.934;2022-12-07T14:30:24;4.17;;;2.77;;
15449;SDS011;7826;49.784;9.934;2022-12-07T14:32:54;4.40;;;3.03;;
15449;SDS011;7826;49.784;9.934;2022-12-07T14:35:24;5.47;;;2.90;;
15449;SDS011;7826;49.784;9.934;2022-12-07T14:37:50;4.20;;;3.03;;
15449;SDS011;7826;49.784;9.934;2022-12-07T14:40:21;3.13;;;2.77;;
15449;SDS011;7826;49.784;9.934;2022-12-07T14:43:11;4.33;;;2.70;;
15449;SDS011;7826;49.784;9.934;2022-12-07T14:45:39;5.73;;;3.30;;
15449;SDS011;7826;49.784;9.934;2022-12-07T14:48:07;4.87;;;3.40;;
15449;SDS011;7826;49.784;9.934;2022-12-07T14:50:39;3.87;;;3.00;;
15449;SDS011;7826;49.784;9.934;2022-12-07T14:53:12;3.93;;;2.77;;
15449;SDS011;7826;49.784;9.934;2022-12-07T14:55:41;4.93;;;3.37;;
15449;SDS011;7826;49.784;9.934;2022-12-07T14:58:14;4.07;;;2.80;;
15449;SDS011;7826;49.784;9.934;2022-12-07T15:00:41;5.60;;;3.50;;
15449;SDS011;7826;49.784;9.934;2022-12-07T15:03:08;8.30;;;3.50;;
15449;SDS011;7826;49.784;9.934;2022-12-07T15:05:34;5.97;;;3.23;;
15449;SDS011;7826;49.784;9.934;2022-12-07T15:08:01;4.20;;;3.03;;
15449;SDS011;7826;49.784;9.934;2022-12-07T15:10:29;6.97;;;3.37;;
15449;SDS011;7826;49.784;9.934;2022-12-07T15:12:58;5.83;;;3.40;;
15449;SDS011;7826;49.784;9.934;2022-12-07T15:15:45;7.93;;;3.53;;
15449;SDS011;7826;49.784;9.934;2022-12-07T15:18:13;3.00;;;2.40;;
15449;SDS011;7826;49.784;9.934;2022-12-07T15:20:39;4.93;;;2.83;;
15449;SDS011;7826;49.784;9.934;2022-12-07T15:23:06;6.00;;;3.03;;
15449;SDS011;7826;49.784;9.934;2022-12-07T15:25:33;5.20;;;3.30;;
15449;SDS011;7826;49.784;9.934;2022-12-07T15:27:59;5.97;;;3.63;;
15449;SDS011;7826;49.784;9.934;2022-12-07T15:30:26;5.60;;;3.07;;
15449;SDS011;7826;49.784;9.934;2022-12-07T15:32:52;4.63;;;3.03;;
15449;SDS011;7826;49.784;9.934;2022-12-07T15:35:19;7.17;;;2.87;;
15449;SDS011;7826;49.784;9.934;2022-12-07T15:37:46;6.07;;;3.30;;
15449;SDS011;7826;49.784;9.934;2022-12-07T15:40:13;5.60;;;3.40;;
15449;SDS011;7826;49.784;9.934;2022-12-07T15:42:39;6.13;;;3.83;;
15449;SDS011;7826;49.784;9.934;2022-12-07T15:45:06;6.70;;;3.40;;
15449;SDS011;7826;49.784;9.934;2022-12-07T15:47:38;5.97;;;3.43;;
15449;SDS011;7826;49.784;9.934;2022-12-07T15:50:10;4.17;;;3.03;;
15449;SDS011;7826;49.784;9.934;2022-12-07T15:52:38;4.60;;;3.07;;
15449;SDS011;7826;49.784;9.934;2022-12-07T15:55:05;6.23;;;3.87;;
15449;SDS011;7826;49.784;9.934;2022-12-07T15:57:33;6.10;;;3.70;;
15449;SDS011;7826;49.784;9.934;2022-12-07T16:00:00;4.97;;;3.33;;
15449;SDS011;7826;49.784;9.934;2022-12-07T16:02:27;4.73;;;3.23;;
15449;SDS011;7826;49.784;9.934;2022-12-07T16:04:53;5.93;;;3.73;;
15449;SDS011;7826;49.784;9.934;2022-12-07T16:07:20;8.70;;;3.90;;
15449;SDS011;7826;49.784;9.934;2022-12-07T16:09:47;7.17;;;3.33;;
15449;SDS011;7826;49.784;9.934;2022-12-07T16:12:15;5.60;;;2.70;;
15449;SDS011;7826;49.784;9.934;2022-12-07T16:14:42;3.97;;;2.87;;
15449;SDS011;7826;49.784;9.934;2022-12-07T16:17:09;5.77;;;2.30;;
15449;SDS011;7826;49.784;9.934;2022-12-07T16:19:36;5.17;;;1.67;;
15449;SDS011;7826;49.784;9.934;2022-12-07T16:22:03;1.93;;;1.40;;
15449;SDS011;7826;49.784;9.934;2022-12-07T16:24:30;2.10;;;1.73;;
15449;SDS011;7826;49.784;9.934;2022-12-07T16:26:56;1.90;;;1.77;;
15449;SDS011;7826;49.784;9.934;2022-12-07T16:29:23;1.47;;;1.37;;
15449;SDS011;7826;49.784;9.934;2022-12-07T16:31:49;1.60;;;1.40;;
15449;SDS011;7826;49.784;9.934;2022-12-07T16:34:17;1.57;;;1.30;;
15449;SDS011;7826;49.784;9.934;2022-12-07T16:36:44;1.10;;;1.10;;
15449;SDS011;7826;49.784;9.934;2022-12-07T16:39:11;2.30;;;1.20;;
15449;SDS011;7826;49.784;9.934;2022-12-07T16:41:38;1.63;;;1.50;;
15449;SDS011;7826;49.784;9.934;2022-12-07T16:44:05;1.60;;;1.20;;
15449;SDS011;7826;49.784;9.934;2022-12-07T16:46:34;1.03;;;1.03;;
15449;SDS011;7826;49.784;9.934;2022-12-07T16:49:01;1.43;;;1.33;;
15449;SDS011;7826;49.784;9.934;2022-12-07T16:51:28;1.67;;;1.50;;
15449;SDS011;7826;49.784;9.934;2022-12-07T16:53:54;2.13;;;1.47;;
15449;SDS011;7826;49.784;9.934;2022-12-07T16:56:21;1.80;;;1.70;;
15449;SDS011;7826;49.784;9.934;2022-12-07T16:58:48;2.33;;;2.13;;
15449;SDS011;7826;49.784;9.934;2022-12-07T17:01:16;2.20;;;2.00;;
15449;SDS011;7826;49.784;9.934;2022-12-07T17:03:44;2.87;;;2.03;;
15449;SDS011;7826;49.784;9.934;2022-12-07T17:06:19;3.20;;;1.53;;
15449;SDS011;7826;49.784;9.934;2022-12-07T17:08:48;2.47;;;2.27;;
15449;SDS011;7826;49.784;9.934;2022-12-07T17:11:19;2.50;;;1.90;;
15449;SDS011;7826;49.784;9.934;2022-12-07T17:13:49;2.77;;;1.60;;
15449;SDS011;7826;49.784;9.934;2022-12-07T17:16:35;1.93;;;1.80;;
15449;SDS011;7826;49.784;9.934;2022-12-07T17:19:03;2.10;;;1.53;;
15449;SDS011;7826;49.784;9.934;2022-12-07T17:21:35;3.80;;;2.00;;
15449;SDS011;7826;49.784;9.934;2022-12-07T17:24:03;1.70;;;1.60;;
15449;SDS011;7826;49.784;9.934;2022-12-07T17:26:31;3.97;;;2.03;;
15449;SDS011;7826;49.784;9.934;2022-12-07T17:28:58;3.50;;;2.00;;
15449;SDS011;7826;49.784;9.934;2022-12-07T17:31:25;2.13;;;1.93;;